createdAt,value
2023-01-11T00:03:52.264Z,2.00
2023-01-11T00:06:20.863Z,2.10
2023-01-11T00:11:19.020Z,2.10
2023-01-11T00:16:17.383Z,2.20
2023-01-11T00:18:45.975Z,2.30
2023-01-11T00:21:15.899Z,2.20
2023-01-11T00:23:44.440Z,2.30
2023-01-11T00:26:14.776Z,2.30
2023-01-11T00:31:12.304Z,2.40
2023-01-11T00:36:10.725Z,2.40
2023-01-11T00:38:51.505Z,2.40
2023-01-11T00:41:38.494Z,2.50
2023-01-11T00:47:11.409Z,2.50
2023-01-11T00:49:40.354Z,2.50
2023-01-11T00:54:41.713Z,2.40
2023-01-11T00:57:10.936Z,2.50
2023-01-11T00:59:40.722Z,2.50
2023-01-11T01:02:10.472Z,2.50
2023-01-11T01:04:42.597Z,2.50
2023-01-11T01:07:12.089Z,2.60
2023-01-11T01:09:42.180Z,2.70
2023-01-11T01:17:10.244Z,2.70
2023-01-11T01:19:40.259Z,2.70
2023-01-11T01:24:37.923Z,2.60
2023-01-11T01:27:07.836Z,2.70
2023-01-11T01:29:36.554Z,2.70
2023-01-11T01:34:37.488Z,2.70
2023-01-11T01:37:06.066Z,2.70
2023-01-11T01:44:58.200Z,2.80
2023-01-11T01:47:34.035Z,2.90
2023-01-11T01:50:09.953Z,2.90
2023-01-11T01:52:38.644Z,2.90
2023-01-11T01:55:12.346Z,2.80
2023-01-11T01:57:44.399Z,2.90
2023-01-11T02:00:15.384Z,2.90
2023-01-11T02:02:46.565Z,2.90
2023-01-11T02:05:16.201Z,2.90
2023-01-11T02:07:46.537Z,3.00
2023-01-11T02:10:19.529Z,3.00
2023-01-11T02:12:53.410Z,3.00
2023-01-11T02:15:25.055Z,3.00
2023-01-11T02:17:53.943Z,3.00
2023-01-11T02:20:46.149Z,2.90
2023-01-11T02:24:05.448Z,2.90
2023-01-11T02:27:04.613Z,2.90
2023-01-11T02:29:45.434Z,2.90
2023-01-11T02:32:28.530Z,2.90
2023-01-11T02:35:12.780Z,2.90
2023-01-11T02:37:53.343Z,2.90
2023-01-11T02:40:29.391Z,3.00
2023-01-11T02:43:24.389Z,3.00
2023-01-11T02:46:02.072Z,2.90
2023-01-11T02:48:41.201Z,3.00
2023-01-11T02:51:14.733Z,2.90
2023-01-11T02:53:48.519Z,2.90
2023-01-11T02:56:21.307Z,2.90
2023-01-11T02:58:53.652Z,2.90
2023-01-11T03:01:25.803Z,2.90
2023-01-11T03:03:56.250Z,2.90
2023-01-11T03:06:28.754Z,2.90
2023-01-11T03:09:16.742Z,2.90
2023-01-11T03:12:21.498Z,2.90
2023-01-11T03:15:02.803Z,2.90
2023-01-11T03:17:46.637Z,2.90
2023-01-11T03:20:23.030Z,3.00
2023-01-11T03:23:13.524Z,3.00
2023-01-11T03:25:57.371Z,3.00
2023-01-11T03:28:37.443Z,3.10
2023-01-11T03:31:10.638Z,3.10
2023-01-11T03:33:50.087Z,3.10
2023-01-11T03:36:24.394Z,3.20
2023-01-11T03:38:57.675Z,3.30
2023-01-11T03:41:31.580Z,3.30
2023-01-11T03:44:06.148Z,3.50
2023-01-11T03:46:39.915Z,3.60
2023-01-11T03:49:15.802Z,3.70
2023-01-11T03:51:47.012Z,3.70
2023-01-11T03:54:22.572Z,3.60
2023-01-11T03:57:02.376Z,3.60
2023-01-11T04:02:00.675Z,3.90
2023-01-11T04:04:30.865Z,4.10
2023-01-11T04:06:59.469Z,4.20
2023-01-11T04:09:28.013Z,4.20
2023-01-11T04:11:56.504Z,4.30
2023-01-11T04:14:25.174Z,4.20
2023-01-11T04:19:22.993Z,4.30
2023-01-11T04:21:53.049Z,4.10
2023-01-11T04:24:21.869Z,4.20
2023-01-11T04:26:50.508Z,4.20
2023-01-11T04:29:19.293Z,4.20
2023-01-11T04:31:47.872Z,4.20
2023-01-11T04:36:45.607Z,4.10
2023-01-11T04:39:15.789Z,4.00
2023-01-11T04:42:01.631Z,4.00
2023-01-11T04:44:30.130Z,4.00
2023-01-11T04:46:58.856Z,4.00
2023-01-11T04:49:27.634Z,4.00
2023-01-11T04:51:56.187Z,4.10
2023-01-11T04:54:26.121Z,4.20
2023-01-11T04:56:54.921Z,4.20
2023-01-11T05:04:21.679Z,4.30
2023-01-11T05:09:20.963Z,4.50
2023-01-11T05:11:51.377Z,4.80
2023-01-11T05:14:21.226Z,4.80
2023-01-11T05:16:49.802Z,5.00
2023-01-11T05:24:18.032Z,5.50
2023-01-11T05:26:48.551Z,5.70
2023-01-11T05:29:20.547Z,5.70
2023-01-11T05:31:49.978Z,5.90
2023-01-11T05:34:19.214Z,5.90
2023-01-11T05:36:47.796Z,5.90
2023-01-11T05:39:17.388Z,6.00
2023-01-11T05:41:45.928Z,6.00
2023-01-11T05:44:32.615Z,6.00
2023-01-11T05:47:02.784Z,6.00
2023-01-11T05:49:31.370Z,6.10
2023-01-11T05:51:59.940Z,6.10
2023-01-11T05:54:28.543Z,6.20
2023-01-11T05:56:58.759Z,6.20
2023-01-11T06:04:27.764Z,6.20
2023-01-11T06:06:56.372Z,6.30
2023-01-11T06:09:25.279Z,6.30
2023-01-11T06:14:22.798Z,6.40
2023-01-11T06:16:51.579Z,6.30
2023-01-11T06:19:20.342Z,6.40
2023-01-11T06:21:50.498Z,6.40
2023-01-11T06:24:19.398Z,6.40
2023-01-11T06:29:16.691Z,6.50
2023-01-11T06:31:45.722Z,6.50
2023-01-11T06:34:14.314Z,6.50
2023-01-11T06:36:42.846Z,6.50
2023-01-11T06:39:12.845Z,6.50
2023-01-11T06:41:41.436Z,6.50
2023-01-11T06:44:09.978Z,6.50
2023-01-11T06:49:07.437Z,6.50
2023-01-11T06:51:36.230Z,6.60
2023-01-11T06:54:04.938Z,6.50
2023-01-11T06:56:35.152Z,6.60
2023-01-11T06:59:03.743Z,6.60
2023-01-11T07:01:32.539Z,6.60
2023-01-11T07:04:01.670Z,6.60
2023-01-11T07:06:32.352Z,6.70
2023-01-11T07:09:00.891Z,6.60
2023-01-11T07:11:31.959Z,6.70
2023-01-11T07:14:01.904Z,6.70
2023-01-11T07:19:00.082Z,6.70
2023-01-11T07:21:29.075Z,6.60
2023-01-11T07:23:57.641Z,6.70
2023-01-11T07:26:26.640Z,6.70
2023-01-11T07:31:25.469Z,6.70
2023-01-11T07:33:54.052Z,6.70
2023-01-11T07:36:22.572Z,6.70
2023-01-11T07:41:39.143Z,6.70
2023-01-11T07:46:38.071Z,6.80
2023-01-11T07:49:06.672Z,6.70
2023-01-11T07:51:36.007Z,6.80
2023-01-11T07:54:04.704Z,6.80
2023-01-11T07:56:33.919Z,6.90
2023-01-11T07:59:02.449Z,6.90
2023-01-11T08:01:31.013Z,6.90
2023-01-11T08:04:00.937Z,6.90
2023-01-11T08:08:58.309Z,6.90
2023-01-11T08:19:29.967Z,7.00
2023-01-11T08:21:58.758Z,7.00
2023-01-11T08:24:27.297Z,7.00
2023-01-11T08:26:56.425Z,7.00
2023-01-11T08:29:25.868Z,7.10
2023-01-11T08:31:54.925Z,7.10
2023-01-11T08:34:23.731Z,7.10
2023-01-11T08:36:54.340Z,7.20
2023-01-11T08:39:22.980Z,7.20
2023-01-11T08:41:51.598Z,7.10
2023-01-11T08:44:33.263Z,7.20
2023-01-11T08:47:02.927Z,7.30
2023-01-11T08:49:32.739Z,7.30
2023-01-11T08:52:02.816Z,7.30
2023-01-11T08:54:31.405Z,7.30
2023-01-11T08:59:28.799Z,7.30
2023-01-11T09:01:57.690Z,7.30
2023-01-11T09:04:26.872Z,7.40
2023-01-11T09:06:55.624Z,7.40
2023-01-11T09:09:25.623Z,7.40
2023-01-11T09:11:58.915Z,7.50
2023-01-11T09:14:29.152Z,7.60
2023-01-11T09:16:58.482Z,7.50
2023-01-11T09:19:27.364Z,7.60
2023-01-11T09:22:01.132Z,7.60
2023-01-11T09:24:31.611Z,7.50
2023-01-11T09:27:01.431Z,7.60
2023-01-11T09:29:30.092Z,7.60
2023-01-11T09:31:58.718Z,7.60
2023-01-11T09:34:27.611Z,7.60
2023-01-11T09:37:00.073Z,7.60
2023-01-11T09:39:30.058Z,7.60
2023-01-11T09:42:32.034Z,7.60
2023-01-11T09:45:09.739Z,7.60
2023-01-11T09:47:43.538Z,7.60
2023-01-11T09:50:20.604Z,7.70
2023-01-11T09:52:53.022Z,7.70
2023-01-11T09:55:33.980Z,7.70
2023-01-11T09:58:28.363Z,7.80
2023-01-11T10:01:07.145Z,7.80
2023-01-11T10:04:33.520Z,7.70
2023-01-11T10:07:30.345Z,7.70
2023-01-11T10:18:28.982Z,7.70
2023-01-11T10:19:37.715Z,7.70
2023-01-11T10:22:12.251Z,7.70
2023-01-11T10:24:45.529Z,7.70
2023-01-11T10:27:25.630Z,7.80
2023-01-11T10:30:12.860Z,7.90
2023-01-11T10:32:54.298Z,7.80
2023-01-11T10:35:45.990Z,7.90
2023-01-11T10:38:43.011Z,7.90
2023-01-11T10:41:26.081Z,7.90
2023-01-11T10:44:11.104Z,7.90
2023-01-11T10:46:45.986Z,7.90
2023-01-11T10:49:37.737Z,7.90
2023-01-11T10:52:24.551Z,8.00
2023-01-11T10:54:56.071Z,8.00
2023-01-11T10:57:39.811Z,8.00
2023-01-11T11:00:36.732Z,8.00
2023-01-11T11:03:49.461Z,7.90
2023-01-11T11:06:33.463Z,7.90
2023-01-11T11:09:14.573Z,7.90
2023-01-11T11:11:53.094Z,7.90
2023-01-11T11:14:31.230Z,7.90
2023-01-11T11:17:15.264Z,7.90
2023-01-11T11:22:34.782Z,7.90
2023-01-11T11:25:13.507Z,7.90
2023-01-11T11:27:44.380Z,7.90
2023-01-11T11:30:15.722Z,7.80
2023-01-11T11:32:54.069Z,7.80
2023-01-11T11:35:39.995Z,7.80
2023-01-11T11:38:23.768Z,7.80
2023-01-11T11:40:59.899Z,7.70
2023-01-11T11:43:29.513Z,7.70
2023-01-11T11:45:59.813Z,7.70
2023-01-11T11:48:31.299Z,7.70
2023-01-11T11:51:05.182Z,7.80
2023-01-11T11:53:43.121Z,7.70
2023-01-11T11:56:20.975Z,7.70
2023-01-11T11:58:49.947Z,7.60
2023-01-11T12:01:27.358Z,7.60
2023-01-11T12:03:59.645Z,7.60
2023-01-11T12:06:31.649Z,7.60
2023-01-11T12:09:03.289Z,7.60
2023-01-11T12:11:35.174Z,7.50
2023-01-11T12:14:17.597Z,7.50
2023-01-11T12:16:47.648Z,7.50
2023-01-11T12:19:31.621Z,7.50
2023-01-11T12:22:19.847Z,7.50
2023-01-11T12:24:49.957Z,7.50
2023-01-11T12:27:34.875Z,7.40
2023-01-11T12:30:20.222Z,7.50
2023-01-11T12:33:20.920Z,7.40
2023-01-11T12:35:57.412Z,7.40
2023-01-11T12:38:51.138Z,7.40
2023-01-11T12:41:57.088Z,7.40
2023-01-11T12:44:42.168Z,7.40
2023-01-11T12:48:01.287Z,7.30
2023-01-11T12:50:36.053Z,7.30
2023-01-11T12:53:35.485Z,7.30
2023-01-11T12:56:39.603Z,7.20
2023-01-11T12:59:29.461Z,7.20
2023-01-11T13:02:20.007Z,7.20
2023-01-11T13:05:04.960Z,7.20
2023-01-11T13:07:47.762Z,7.20
2023-01-11T13:10:36.572Z,7.20
2023-01-11T13:13:13.421Z,7.10
2023-01-11T13:15:53.636Z,7.20
2023-01-11T13:18:36.407Z,7.10
2023-01-11T13:21:18.335Z,7.20
2023-01-11T13:23:52.406Z,7.10
2023-01-11T13:26:27.037Z,7.10
2023-01-11T13:29:02.177Z,7.10
2023-01-11T13:31:31.754Z,7.00
2023-01-11T13:34:06.479Z,7.10
2023-01-11T13:36:42.667Z,7.10
2023-01-11T13:39:20.283Z,7.00
2023-01-11T13:41:53.789Z,7.00
2023-01-11T13:44:26.301Z,7.00
2023-01-11T13:47:04.493Z,7.00
2023-01-11T13:49:55.394Z,7.00
2023-01-11T13:52:41.265Z,7.00
2023-01-11T13:55:24.879Z,7.00
2023-01-11T13:58:02.911Z,7.00
2023-01-11T14:00:38.544Z,7.10
2023-01-11T14:03:19.853Z,7.10
2023-01-11T14:06:04.317Z,7.00
2023-01-11T14:09:01.880Z,7.00
2023-01-11T14:11:43.104Z,7.00
2023-01-11T14:14:32.310Z,7.00
2023-01-11T14:17:21.096Z,7.10
2023-01-11T14:19:59.807Z,7.10
2023-01-11T14:22:36.708Z,7.10
2023-01-11T14:25:10.832Z,7.10
2023-01-11T14:28:20.598Z,7.00
2023-01-11T14:31:20.744Z,7.10
2023-01-11T14:34:53.842Z,7.10
2023-01-11T14:38:13.991Z,7.10
2023-01-11T14:41:23.596Z,7.00
2023-01-11T14:44:14.719Z,7.00
2023-01-11T14:47:04.087Z,6.90
2023-01-11T14:49:52.696Z,7.00
2023-01-11T14:52:39.130Z,6.90
2023-01-11T14:55:18.778Z,6.80
2023-01-11T14:58:05.569Z,6.70
2023-01-11T15:01:11.131Z,6.60
2023-01-11T15:03:57.855Z,6.50
2023-01-11T15:06:26.715Z,6.40
2023-01-11T15:08:57.077Z,6.40
2023-01-11T15:11:38.642Z,6.30
2023-01-11T15:14:24.573Z,6.30
2023-01-11T15:17:13.520Z,6.20
2023-01-11T15:19:44.853Z,6.20
2023-01-11T15:22:30.678Z,6.20
2023-01-11T15:25:02.581Z,6.20
2023-01-11T15:27:36.340Z,6.20
2023-01-11T15:30:07.632Z,6.20
2023-01-11T15:32:37.478Z,6.20
2023-01-11T15:35:34.536Z,6.10
2023-01-11T15:38:13.579Z,6.10
2023-01-11T15:40:46.795Z,6.10
2023-01-11T15:44:01.112Z,6.10
2023-01-11T15:46:57.180Z,6.20
2023-01-11T15:50:33.836Z,6.10
2023-01-11T15:53:43.835Z,6.10
2023-01-11T15:56:43.803Z,6.00
2023-01-11T16:00:06.033Z,6.00
2023-01-11T16:03:12.249Z,5.90
2023-01-11T16:05:51.711Z,5.90
2023-01-11T16:08:28.765Z,5.90
2023-01-11T16:11:10.100Z,5.90
2023-01-11T16:13:57.005Z,5.80
2023-01-11T16:16:29.415Z,5.80
2023-01-11T16:19:01.576Z,5.80
2023-01-11T16:21:36.284Z,5.90
2023-01-11T16:24:08.995Z,5.90
2023-01-11T16:26:39.759Z,5.90
2023-01-11T16:29:13.370Z,5.80
2023-01-11T16:31:57.886Z,5.80
2023-01-11T16:34:26.924Z,5.80
2023-01-11T16:36:57.972Z,5.80
2023-01-11T16:39:30.596Z,5.80
2023-01-11T16:42:04.169Z,5.80
2023-01-11T16:44:42.029Z,5.80
2023-01-11T16:47:17.272Z,5.80
2023-01-11T16:49:49.678Z,5.80
2023-01-11T16:52:50.745Z,5.80
2023-01-11T16:55:29.684Z,5.70
2023-01-11T16:58:02.367Z,5.70
2023-01-11T17:00:37.953Z,5.70
2023-01-11T17:03:24.271Z,5.60
2023-01-11T17:06:21.002Z,5.60
2023-01-11T17:08:53.339Z,5.60
2023-01-11T17:11:29.355Z,5.60
2023-01-11T17:14:48.010Z,5.50
2023-01-11T17:17:17.106Z,5.50
2023-01-11T17:19:49.532Z,5.40
2023-01-11T17:22:26.104Z,5.40
2023-01-11T17:24:59.624Z,5.40
2023-01-11T17:27:33.262Z,5.30
2023-01-11T17:30:04.875Z,5.30
2023-01-11T17:32:38.065Z,5.30
2023-01-11T17:35:11.604Z,5.30
2023-01-11T17:37:40.953Z,5.30
2023-01-11T17:40:23.509Z,5.30
2023-01-11T17:43:10.630Z,5.20
2023-01-11T17:45:39.780Z,5.20
2023-01-11T17:48:14.132Z,5.20
2023-01-11T17:50:49.671Z,5.20
2023-01-11T17:53:24.307Z,5.10
2023-01-11T17:55:56.944Z,5.10
2023-01-11T17:58:27.501Z,5.00
2023-01-11T18:01:21.508Z,5.10
2023-01-11T18:03:52.286Z,5.10
2023-01-11T18:06:31.381Z,5.10
2023-01-11T18:09:02.764Z,5.10
2023-01-11T18:11:36.559Z,5.10
2023-01-11T18:14:08.894Z,5.10
2023-01-11T18:16:37.584Z,5.10
2023-01-11T18:19:26.042Z,5.10
2023-01-11T18:21:55.718Z,5.10
2023-01-11T18:24:35.910Z,5.10
2023-01-11T18:27:21.346Z,5.10
2023-01-11T18:29:51.511Z,5.10
2023-01-11T18:32:20.634Z,5.10
2023-01-11T18:34:54.267Z,5.10
2023-01-11T18:37:23.485Z,5.10
2023-01-11T18:39:53.787Z,5.10
2023-01-11T18:42:29.483Z,5.10
2023-01-11T18:44:58.237Z,5.10
2023-01-11T18:47:30.472Z,5.10
2023-01-11T18:49:59.650Z,5.10
2023-01-11T18:52:29.591Z,5.10
2023-01-11T18:54:59.298Z,5.10
2023-01-11T18:57:29.229Z,5.00
2023-01-11T18:59:57.777Z,4.90
2023-01-11T19:02:28.895Z,4.90
2023-01-11T19:04:58.488Z,4.80
2023-01-11T19:07:27.944Z,4.80
2023-01-11T19:09:56.749Z,4.80
2023-01-11T19:12:25.476Z,4.80
2023-01-11T19:14:55.875Z,4.80
2023-01-11T19:17:26.683Z,4.70
2023-01-11T19:19:55.274Z,4.70
2023-01-11T19:22:26.409Z,4.60
2023-01-11T19:27:24.836Z,4.70
2023-01-11T19:29:57.920Z,4.70
2023-01-11T19:32:26.504Z,4.60
2023-01-11T19:34:58.311Z,4.60
2023-01-11T19:37:27.809Z,4.60
2023-01-11T19:39:56.344Z,4.60
2023-01-11T19:42:24.982Z,4.70
2023-01-11T19:44:54.964Z,4.80
2023-01-11T19:47:23.842Z,4.80
2023-01-11T19:52:25.067Z,4.80
2023-01-11T19:54:55.097Z,4.80
2023-01-11T19:59:54.434Z,4.80
2023-01-11T20:02:23.276Z,4.80
2023-01-11T20:07:20.691Z,4.70
2023-01-11T20:09:49.262Z,4.70
2023-01-11T20:12:18.110Z,4.80
2023-01-11T20:17:21.042Z,4.70
2023-01-11T20:19:54.785Z,4.70
2023-01-11T20:22:23.712Z,4.60
2023-01-11T20:24:52.415Z,4.60
2023-01-11T20:27:21.136Z,4.50
2023-01-11T20:29:52.870Z,4.50
2023-01-11T20:32:40.287Z,4.40
2023-01-11T20:35:11.684Z,4.40
2023-01-11T20:37:40.541Z,4.40
2023-01-11T20:40:14.159Z,4.30
2023-01-11T20:42:43.211Z,4.30
2023-01-11T20:45:12.618Z,4.30
2023-01-11T20:47:42.552Z,4.30
2023-01-11T20:50:11.783Z,4.40
2023-01-11T20:52:40.316Z,4.30
2023-01-11T20:55:10.469Z,4.30
2023-01-11T20:57:39.246Z,4.20
2023-01-11T21:02:39.410Z,4.30
2023-01-11T21:05:10.371Z,4.30
2023-01-11T21:07:38.911Z,4.30
2023-01-11T21:10:10.197Z,4.30
2023-01-11T21:12:41.712Z,4.30
2023-01-11T21:15:11.253Z,4.40
2023-01-11T21:17:39.826Z,4.30
2023-01-11T21:20:12.053Z,4.30
2023-01-11T21:22:40.655Z,4.20
2023-01-11T21:25:10.863Z,4.30
2023-01-11T21:27:39.431Z,4.20
2023-01-11T21:30:09.777Z,4.20
2023-01-11T21:32:38.292Z,4.20
2023-01-11T21:35:07.736Z,4.20
2023-01-11T21:37:37.763Z,4.20
2023-01-11T21:40:07.880Z,4.20
2023-01-11T21:47:56.278Z,4.20
2023-01-11T21:52:56.621Z,4.20
2023-01-11T21:57:54.728Z,4.20
2023-01-11T22:00:23.582Z,4.20
2023-01-11T22:02:52.364Z,4.20
2023-01-11T22:05:20.903Z,4.20
2023-01-11T22:10:19.925Z,4.10
2023-01-11T22:12:48.453Z,4.00
2023-01-11T22:15:17.096Z,4.00
2023-01-11T22:17:45.820Z,4.00
2023-01-11T22:20:17.581Z,4.00
2023-01-11T22:25:14.954Z,4.00
2023-01-11T22:27:44.947Z,4.00
2023-01-11T22:30:14.718Z,4.00
2023-01-11T22:32:43.666Z,4.00
2023-01-11T22:35:12.255Z,4.00
2023-01-11T22:37:40.824Z,4.00
2023-01-11T22:40:11.236Z,4.00
2023-01-11T22:42:39.747Z,3.90
2023-01-11T22:45:12.387Z,4.00
2023-01-11T22:50:11.673Z,4.00
2023-01-11T22:55:10.440Z,4.00
2023-01-11T22:57:39.444Z,4.00
2023-01-11T23:00:12.945Z,3.90
2023-01-11T23:02:41.720Z,3.90
2023-01-11T23:10:09.725Z,3.90
2023-01-11T23:12:55.361Z,3.90
2023-01-11T23:15:25.544Z,3.90
2023-01-11T23:20:23.107Z,3.80
2023-01-11T23:25:20.885Z,3.80
2023-01-11T23:32:49.423Z,3.70
2023-01-11T23:35:18.177Z,3.70
2023-01-11T23:37:46.802Z,3.80
2023-01-11T23:40:15.698Z,3.80
2023-01-11T23:42:43.223Z,3.80
2023-01-11T23:45:12.350Z,3.80
2023-01-11T23:47:39.922Z,3.80
2023-01-11T23:50:11.623Z,3.80
2023-01-11T23:52:40.165Z,3.80
2023-01-11T23:55:10.527Z,3.80
2023-01-11T23:57:59.090Z,3.80
